Latest Coastal Weather Observations for Truscott

IDD60701

Issued at 5:21 am CST Thursday 30 June 2016 (issued every 10 minutes, with the page automatically refreshed every 10 minutes)

About coastal observations | Map of coastal stations | Coastal observations for NT | Marine services | Other Formats
Station Details ID: 001020 Name: TRUSCOTT Lat: -14.09 Lon: 126.39 Height: 51.0 m
Data from the previous 72 hours. | See also: Recent months at Truscott
Date/Time
CST
Temp
°C
Wind Pressure Rain since
9am
mm
Weather Cloud Vis
km
Sea
Height
m
Swell
Dir  Spd
kts
Gust
kts
hPa Trend Height
m
Period
s
Dir
30/05:00am 18.8 S 4 5 1014.8 - 0.0 - - 10 - - - -
30/04:30am 19.1 SE 3 4 1015.0 - 0.0 - - 10 - - - -
30/04:28am 19.2 SE 3 4 1015.0 - 0.0 - - 10 - - - -
30/04:11am 20.9 SSE 5 6 1014.9 - 0.0 - - 5 - - - -
30/04:00am 20.4 SSE 5 6 1015.0 - 0.0 - - 10 - - - -
30/03:30am 20.3 SE 4 5 1015.3 - 0.0 - - 9 - - - -
30/03:00am 20.6 SE 4 5 1015.4 - 0.0 - - 10 - - - -
30/02:30am 21.1 SE 4 6 1015.6 - 0.0 - - 10 - - - -
30/02:00am 21.2 SE 4 5 1015.8 - 0.0 - - 10 - - - -
30/01:30am 21.2 ESE 4 6 1016.0 - 0.0 - - 10 - - - -
30/01:00am 21.8 ESE 4 5 1016.2 - 0.0 - - 10 - - - -
30/12:30am 22.4 ESE 5 6 1016.4 - 0.0 - - 8 - - - -
30/12:00am 22.1 E 4 5 1016.6 - 0.0 - - 10 - - - -
 
Date/Time
CST
Temp
°C
Wind Pressure Rain since
9am
mm
Weather Cloud Vis
km
Sea
Height
m
Swell
Dir  Spd
kts
Gust
kts
hPa Trend Height
m
Period
s
Dir
29/11:30pm 22.8 E 4 6 1016.8 - 0.0 - - 10 - - - -
29/11:00pm 22.9 E 4 6 1016.8 - 0.0 - - 10 - - - -
29/10:30pm 23.9 E 4 6 1016.7 - 0.0 - - 8 - - - -
29/10:00pm 23.5 E 4 5 1016.5 - 0.0 - - 10 - - - -
29/09:30pm 24.4 ENE 4 6 1016.2 - 0.0 - - 10 - - - -
29/09:00pm 25.4 NE 4 6 1015.9 - 0.0 - - 10 - - - -
29/08:30pm 25.8 NE 4 6 1015.3 - 0.0 - - 10 - - - -
29/08:00pm 26.1 NE 4 6 1014.8 - 0.0 - - 10 - - - -
29/07:30pm 26.6 NE 4 6 1014.5 - 0.0 - - 10 - - - -
29/07:00pm 27.6 NE 5 7 1014.1 - 0.0 - - 10 - - - -
29/06:30pm 28.6 NE 6 10 1013.9 - 0.0 - - 10 - - - -
29/06:00pm 29.5 NE 7 12 1013.5 - 0.0 - - 10 - - - -
29/05:30pm 29.7 ENE 8 13 1013.3 - 0.0 - - 10 - - - -
29/05:00pm 30.2 ENE 8 14 1013.0 - 0.0 - - 10 - - - -
29/04:30pm 30.4 ENE 10 14 1012.6 - 0.0 - - 10 - - - -
29/04:00pm 30.4 ENE 10 16 1012.7 - 0.0 - - 10 - - - -
29/03:30pm 30.5 ENE 11 18 1012.6 - 0.0 - - 10 - - - -
29/03:00pm 30.3 E 9 16 1012.8 - 0.0 - - 10 - - - -
29/02:30pm 30.8 ENE 11 17 1013.1 - 0.0 - - 10 - - - -
29/02:00pm 30.3 ENE 13 19 1013.5 - 0.0 - - 10 - - - -
29/01:30pm 30.3 ENE 12 20 1013.9 - 0.0 - - 10 - - - -
29/01:00pm 30.1 E 12 19 1014.6 - 0.0 - - 10 - - - -
29/12:30pm 29.4 E 11 18 1015.3 - 0.0 - - 10 - - - -
29/12:00pm 28.9 ESE 12 21 1015.8 - 0.0 - - 10 - - - -
29/11:30am 28.6 E 13 21 1016.1 - 0.0 - - 10 - - - -
29/11:00am 27.8 E 11 18 1016.2 - 0.0 - - 10 - - - -
29/10:30am 27.0 E 12 19 1016.3 - 0.0 - - 10 - - - -
29/10:00am 26.9 E 13 22 1016.4 - 0.0 - - 10 - - - -
29/09:30am 26.6 E 9 21 1016.4 - 0.0 - - 10 - - - -
29/09:00am 25.9 E 8 17 1016.2 - 0.0 - - 10 - - - -
29/08:30am 24.9 ESE 7 12 1015.8 - 0.0 - - 10 - - - -
29/08:00am 24.0 ESE 7 12 1015.4 - 0.0 - - 10 - - - -
29/07:30am 23.8 ESE 7 13 1015.0 - 0.0 - - 10 - - - -
29/07:00am 23.8 SE 6 10 1014.9 - 0.0 - - 10 - - - -
29/06:30am 23.4 SE 5 9 1014.7 - 0.0 - - 10 - - - -
29/06:00am 23.2 SE 4 6 1014.4 - 0.0 - - 10 - - - -
29/05:30am 23.3 SE 5 8 1014.3 - 0.0 - - 8 - - - -
29/05:00am 22.9 SE 4 6 1014.1 - 0.0 - - 10 - - - -
29/04:30am 22.8 SE 4 5 1014.1 - 0.0 - - 10 - - - -
29/04:00am 21.9 SSE 3 4 1014.2 - 0.0 - - 10 - - - -
29/03:30am 21.9 SSE 3 4 1014.4 - 0.0 - - 10 - - - -
29/03:00am 22.0 SSE 2 3 1014.7 - 0.0 - - 10 - - - -
29/02:30am 22.6 SE 3 4 1014.8 - 0.0 - - 10 - - - -
29/02:00am 23.0 SE 4 5 1015.0 - 0.0 - - 7 - - - -
29/01:30am 23.2 SE 4 5 1015.3 - 0.0 - - 10 - - - -
29/01:00am 23.2 SE 4 6 1015.4 - 0.0 - - 10 - - - -
29/12:30am 23.5 ESE 3 5 1015.5 - 0.0 - - 10 - - - -
29/12:00am 23.3 ESE 3 4 1015.5 - 0.0 - - 9 - - - -
 
Date/Time
CST
Temp
°C
Wind Pressure Rain since
9am
mm
Weather Cloud Vis
km
Sea
Height
m
Swell
Dir  Spd
kts
Gust
kts
hPa Trend Height
m
Period
s
Dir
28/11:59pm 23.2 ESE 3 4 1015.5 - 0.0 - - 8 - - - -
28/11:45pm 23.7 E 4 5 1015.6 - 0.0 - - 5 - - - -
28/11:30pm 23.5 E 3 5 1015.7 - 0.0 - - 7 - - - -
28/11:00pm 24.4 CALM 0 2 1015.6 - 0.0 - - 10 - - - -
28/10:30pm 25.5 ENE 3 4 1015.7 - 0.0 - - 10 - - - -
28/10:00pm 26.2 ENE 5 7 1015.7 - 0.0 - - 10 - - - -
28/09:30pm 26.4 ENE 5 7 1015.6 - 0.0 - - 10 - - - -
28/09:00pm 26.6 ENE 4 6 1015.4 - 0.0 - - 10 - - - -
28/08:30pm 27.2 ENE 5 9 1015.1 - 0.0 - - 8 - - - -
28/08:00pm 27.8 ENE 6 9 1014.6 - 0.0 - - 10 - - - -
28/07:30pm 28.1 ENE 7 10 1014.1 - 0.0 - - 10 - - - -
28/07:00pm 28.5 NE 8 13 1013.6 - 0.0 - - 10 - - - -
28/06:30pm 29.3 NE 9 14 1013.1 - 0.0 - - 10 - - - -
28/06:00pm 30.2 ENE 11 18 1012.6 - 0.0 - - 10 - - - -
28/05:30pm 30.7 NE 10 16 1012.2 - 0.0 - - 10 - - - -
28/05:00pm 31.5 ENE 9 16 1012.0 - 0.0 - - 10 - - - -
28/04:30pm 32.0 ENE 10 15 1011.9 - 0.0 - - 10 - - - -
28/04:00pm 32.1 ENE 10 17 1011.8 - 0.0 - - 10 - - - -
28/03:30pm 31.6 E 11 17 1011.9 - 0.0 - - 10 - - - -
28/03:00pm 31.9 ENE 9 14 1011.9 - 0.0 - - 10 - - - -
28/02:30pm 31.9 ENE 10 16 1012.3 - 0.0 - - 10 - - - -
28/02:00pm 31.5 E 10 19 1012.5 - 0.0 - - 10 - - - -
28/01:30pm 31.8 E 9 14 1012.8 - 0.0 - - 10 - - - -
28/01:00pm 31.3 E 10 16 1013.3 - 0.0 - - 10 - - - -
28/12:30pm 30.6 E 13 20 1013.7 - 0.0 - - 10 - - - -
28/12:00pm 30.2 E 11 18 1014.1 - 0.0 - - 10 - - - -
28/11:30am 30.0 E 12 20 1014.4 - 0.0 - - 10 - - - -
28/11:00am 29.0 E 13 21 1014.4 - 0.0 - - 10 - - - -
28/10:30am 28.9 E 11 19 1014.3 - 0.0 - - 10 - - - -
28/10:00am 28.4 ESE 9 16 1014.2 - 0.0 - - 10 - - - -
28/09:30am 27.2 ESE 11 17 1013.9 - 0.0 - - 10 - - - -
28/09:00am 26.3 ESE 10 17 1013.6 - 0.0 - - 10 - - - -
28/08:30am 25.5 ESE 7 11 1013.4 - 0.0 - - 10 - - - -
28/08:00am 24.6 ESE 7 10 1013.1 - 0.0 - - 10 - - - -
28/07:30am 23.6 ESE 5 8 1012.8 - 0.0 - - 10 - - - -
28/07:00am 23.4 ESE 5 7 1012.4 - 0.0 - - 10 - - - -
28/06:30am 23.3 ESE 4 6 1012.1 - 0.0 - - 10 - - - -
28/06:00am 23.6 ESE 5 7 1011.9 - 0.0 - - 10 - - - -
28/05:30am 23.2 ESE 4 6 1011.7 - 0.0 - - 10 - - - -
28/05:00am 22.4 ESE 4 5 1011.7 - 0.0 - - 10 - - - -
28/04:30am 21.1 SE 3 4 1011.6 - 0.0 - - 10 - - - -
28/04:00am 21.2 SE 3 3 1011.8 - 0.0 - - 10 - - - -
28/03:30am 21.5 CALM 0 1 1011.9 - 0.0 - - 10 - - - -
28/03:00am 22.5 ESE 3 4 1012.1 - 0.0 - - 10 - - - -
28/02:30am 23.9 ESE 3 5 1012.5 - 0.0 - - 10 - - - -
28/02:00am 23.6 SE 4 5 1012.8 - 0.0 - - 10 - - - -
28/01:30am 22.6 SE 3 5 1013.0 - 0.0 - - 8 - - - -
28/01:00am 23.6 SE 3 5 1013.2 - 0.0 - - 10 - - - -
28/12:30am 24.2 SE 5 6 1013.4 - 0.0 - - 9 - - - -
28/12:00am 23.9 ESE 3 4 1013.6 - 0.0 - - 10 - - - -
 
Date/Time
CST
Temp
°C
Wind Pressure Rain since
9am
mm
Weather Cloud Vis
km
Sea
Height
m
Swell
Dir  Spd
kts
Gust
kts
hPa Trend Height
m
Period
s
Dir
27/11:30pm 24.9 ESE 4 5 1013.8 - 0.0 - - 10 - - - -
27/11:00pm 25.3 E 4 5 1013.8 - 0.0 - - 10 - - - -
27/10:30pm 26.0 ENE 5 7 1013.8 - 0.0 - - 10 - - - -
27/10:00pm 26.1 ENE 4 6 1013.6 - 0.0 - - 10 - - - -
27/09:30pm 26.4 E 4 5 1013.5 - 0.0 - - 10 - - - -
27/09:00pm 27.3 ENE 5 7 1013.2 - 0.0 - - 10 - - - -
27/08:30pm 27.7 NE 5 8 1012.6 - 0.0 - - 10 - - - -
27/08:00pm 28.2 ENE 5 8 1012.0 - 0.0 - - 9 - - - -
27/07:30pm 28.8 ENE 6 9 1011.5 - 0.0 - Mostly cloudy 9 - - - -
27/07:00pm 29.3 NE 7 10 1011.2 - 0.0 - - 10 - - - -
27/06:30pm 30.1 NE 7 12 1010.8 - 0.0 - - 10 - - - -
27/06:00pm 30.9 NE 9 14 1010.4 - 0.0 - - 10 - - - -
27/05:30pm 31.9 NE 8 12 1010.2 - 0.0 - - 10 - - - -
27/05:00pm 32.3 NE 9 13 1009.8 - 0.0 - - 10 - - - -
27/04:30pm 33.0 NE 7 11 1009.6 - 0.0 - - 10 - - - -
27/04:00pm 33.3 E 8 12 1009.6 - 0.0 - - 10 - - - -
27/03:30pm 33.0 ENE 9 14 1009.8 - 0.0 - - 10 - - - -
27/03:00pm 32.8 E 9 13 1010.1 - 0.0 - - 10 - - - -
27/02:30pm 32.7 E 9 16 1010.3 - 0.0 - - 10 - - - -
27/02:00pm 31.9 ENE 9 15 1010.8 - 0.0 - - 10 - - - -
27/01:30pm 32.2 ENE 9 15 1011.2 - 0.0 - - 10 - - - -
27/01:00pm 31.9 E 9 15 1011.7 - 0.0 - - 10 - - - -
27/12:30pm 31.5 E 10 15 1011.9 - 0.0 - - 10 - - - -
27/12:00pm 31.3 ESE 9 15 1012.3 - 0.0 - - 10 - - - -
27/11:30am 31.2 ESE 9 14 1012.4 - 0.0 - - 10 - - - -
27/11:00am 30.9 ESE 8 13 1012.6 - 0.0 - - 10 - - - -
27/10:30am 29.9 SE 5 9 1013.0 - 0.0 - - 10 - - - -
27/10:00am 28.8 SSE 7 10 1013.1 - 0.0 - - 10 - - - -
27/09:30am 27.5 ESE 3 5 1013.1 - 0.0 - - 10 - - - -
27/09:00am 25.3 SE 5 7 1013.0 - 0.0 - - 9 - - - -
27/08:30am 24.0 SE 5 7 1012.6 - 0.0 - - 6 - - - -
27/08:00am 23.1 SSE 4 5 1012.1 - 0.0 - - 10 - - - -
27/07:30am 22.6 SSE 4 6 1012.0 - 0.0 - - 10 - - - -
27/07:00am 22.0 SSE 4 5 1011.8 - 0.0 - - 10 - - - -

Other Formats:

Comma delimited format used in spreadsheet applications
http://www.bom.gov.au/fwo/IDD60701/IDD60701.95101.axf

JavaScript Object Notation format (JSON) in row-major order
http://www.bom.gov.au/fwo/IDD60701/IDD60701.95101.json